NCAR-RAP Real-Time Weather Data

Output produced by METARs form (21 October 2014  07:02 UTC)
found at http://weather.rap.ucar.edu/surface/
 
Conditions at: KALB observed 21 October 2014  06:51 UTC
Temperature: 9.4°C (49°F)
Dewpoint: 6.1°C (43°F) [RH = 80%]
Pressure (altimeter): 29.92 inches Hg (1013.3 mb)
[Sea-level pressure: 1013.3 mb]
Winds: from the S (180 degrees) at 3 MPH (3 knots; 1.6 m/s)
Visibility: 10 or more miles (16+ km)
Ceiling: 6000 feet AGL
Clouds: broken clouds at 6000 feet AGL
overcast cloud deck at 7500 feet AGL
Present Weather: -RA  (light rain)
KALB 210651Z 18003KT 10SM -RA BKN060 OVC075 09/06 A2992 RMK AO2 SLP133 VIS LWR NW-N P0001 T00940061

Conditions at: KALB observed 21 October 2014  05:51 UTC
Temperature: 11.1°C (52°F)
Dewpoint: 4.4°C (40°F) [RH = 63%]
Pressure (altimeter): 29.92 inches Hg (1013.3 mb)
[Sea-level pressure: 1013.3 mb]
Winds: from the S (180 degrees) at 10 MPH (9 knots; 4.7 m/s)
Visibility: 10 or more miles (16+ km)
Ceiling: 7000 feet AGL
Clouds: scattered clouds at 5500 feet AGL
overcast cloud deck at 7000 feet AGL
Present Weather: -RA  (light rain)
KALB 210551Z 18009KT 10SM -RA SCT055 OVC070 11/04 A2992 RMK AO2 RAB37 SLP133 P0000 60000 T01110044 10117 20100 56007

Conditions at: KALB observed 21 October 2014  04:51 UTC
Temperature: 11.1°C (52°F)
Dewpoint: 3.3°C (38°F) [RH = 59%]
Pressure (altimeter): 29.93 inches Hg (1013.6 mb)
[Sea-level pressure: 1013.4 mb]
Winds: from the S (180 degrees) at 7 MPH (6 knots; 3.1 m/s)
Visibility: 10 or more miles (16+ km)
Ceiling: 10000 feet AGL
Clouds: overcast cloud deck at 10000 feet AGL
Present Weather: no significant weather observed at this time
KALB 210451Z 18006KT 10SM OVC100 11/03 A2993 RMK AO2 SLP134 T01110033 401331006

Conditions at: KALB observed 21 October 2014  03:51 UTC
Temperature: 11.1°C (52°F)
Dewpoint: 3.3°C (38°F) [RH = 59%]
Pressure (altimeter): 29.93 inches Hg (1013.6 mb)
[Sea-level pressure: 1013.6 mb]
Winds: from the S (180 degrees) at 8 MPH (7 knots; 3.6 m/s)
Visibility: 10 or more miles (16+ km)
Ceiling: 8500 feet AGL
Clouds: overcast cloud deck at 8500 feet AGL
Present Weather: no significant weather observed at this time
KALB 210351Z 18007KT 10SM OVC085 11/03 A2993 RMK AO2 RAB15E32 SLP136 P0000 T01110033

Conditions at: KALB observed 21 October 2014  02:51 UTC
Temperature: 11.1°C (52°F)
Dewpoint: 2.8°C (37°F) [RH = 57%]
Pressure (altimeter): 29.95 inches Hg (1014.3 mb)
[Sea-level pressure: 1014.2 mb]
Winds: from the S (170 degrees) at 8 MPH (7 knots; 3.6 m/s)
Visibility: 10 or more miles (16+ km)
Ceiling: 8000 feet AGL
Clouds: overcast cloud deck at 8000 feet AGL
Present Weather: no significant weather observed at this time
KALB 210251Z 17007KT 10SM OVC080 11/03 A2995 RMK AO2 SLP142 T01110028 53003

Conditions at: KALB observed 21 October 2014  01:51 UTC
Temperature: 11.1°C (52°F)
Dewpoint: 2.2°C (36°F) [RH = 54%]
Pressure (altimeter): 29.94 inches Hg (1014.0 mb)
[Sea-level pressure: 1014.1 mb]
Winds: from the S (180 degrees) at 8 MPH (7 knots; 3.6 m/s)
Visibility: 10 or more miles (16+ km)
Ceiling: 9000 feet AGL
Clouds: few clouds at 6500 feet AGL
overcast cloud deck at 9000 feet AGL
Present Weather: no significant weather observed at this time
KALB 210151Z 18007KT 10SM FEW065 OVC090 11/02 A2994 RMK AO2 SLP141 FEW V SCT T01110022

Conditions at: KALB observed 21 October 2014  00:51 UTC
Temperature: 10.0°C (50°F)
Dewpoint: 3.3°C (38°F) [RH = 63%]
Pressure (altimeter): 29.94 inches Hg (1014.0 mb)
[Sea-level pressure: 1013.8 mb]
Winds: from the SSW (200 degrees) at 3 MPH (3 knots; 1.6 m/s)
Visibility: 10 or more miles (16+ km)
Ceiling: 11000 feet AGL
Clouds: few clouds at 8500 feet AGL
overcast cloud deck at 11000 feet AGL
Present Weather: no significant weather observed at this time
KALB 210051Z 20003KT 10SM FEW085 OVC110 10/03 A2994 RMK AO2 SLP138 T01000033

Conditions at: KALB observed 20 October 2014  23:51 UTC
Temperature: 11.1°C (52°F)
Dewpoint: 2.2°C (36°F) [RH = 54%]
Pressure (altimeter): 29.94 inches Hg (1014.0 mb)
[Sea-level pressure: 1013.9 mb]
Winds: from the S (170 degrees) at 5 MPH (4 knots; 2.1 m/s)
Visibility: 10 or more miles (16+ km)
Ceiling: 14000 feet AGL
Clouds: few clouds at 8000 feet AGL
scattered clouds at 11000 feet AGL
overcast cloud deck at 14000 feet AGL
Present Weather: no significant weather observed at this time
KALB 202351Z 17004KT 10SM FEW080 SCT110 OVC140 11/02 A2994 RMK AO2 SLP139 T01110022 10133 20111 58001

Conditions at: KALB observed 20 October 2014  22:51 UTC
Temperature: 11.1°C (52°F)
Dewpoint: 1.7°C (35°F) [RH = 52%]
Pressure (altimeter): 29.94 inches Hg (1014.0 mb)
[Sea-level pressure: 1014.1 mb]
Winds: from the S (180 degrees) at 6 MPH (5 knots; 2.6 m/s)
Visibility: 10 or more miles (16+ km)
Ceiling: 9000 feet AGL
Clouds: broken clouds at 9000 feet AGL
broken clouds at 14000 feet AGL
overcast cloud deck at 20000 feet AGL
Present Weather: no significant weather observed at this time
KALB 202251Z 18005KT 10SM BKN090 BKN140 OVC200 11/02 A2994 RMK AO2 SLP141 T01110017

Conditions at: KALB observed 20 October 2014  21:51 UTC
Temperature: 11.1°C (52°F)
Dewpoint: 1.1°C (34°F) [RH = 50%]
Pressure (altimeter): 29.94 inches Hg (1014.0 mb)
[Sea-level pressure: 1014.2 mb]
Winds: from the S (170 degrees) at 6 MPH (5 knots; 2.6 m/s)
Visibility: 10 or more miles (16+ km)
Ceiling: 9000 feet AGL
Clouds: few clouds at 7000 feet AGL
broken clouds at 9000 feet AGL
broken clouds at 14000 feet AGL
overcast cloud deck at 20000 feet AGL
Present Weather: no significant weather observed at this time
KALB 202151Z 17005KT 10SM FEW070 BKN090 BKN140 OVC200 11/01 A2994 RMK AO2 SLP142 T01110011

Conditions at: KALB observed 20 October 2014  20:51 UTC
Temperature: 11.1°C (52°F)
Dewpoint: 1.1°C (34°F) [RH = 50%]
Pressure (altimeter): 29.94 inches Hg (1014.0 mb)
[Sea-level pressure: 1014.1 mb]
Winds: from the S (180 degrees) at 13 MPH (11 knots; 5.7 m/s)
Visibility: 10 or more miles (16+ km)
Ceiling: 8000 feet AGL
Clouds: few clouds at 7000 feet AGL
broken clouds at 8000 feet AGL
broken clouds at 10000 feet AGL
broken clouds at 20000 feet AGL
Present Weather: no significant weather observed at this time
KALB 202051Z 18011KT 10SM FEW070 BKN080 BKN100 BKN200 11/01 A2994 RMK AO2 SLP141 T01110011 56008

Conditions at: KALB observed 20 October 2014  19:51 UTC
Temperature: 11.7°C (53°F)
Dewpoint: 1.1°C (34°F) [RH = 48%]
Pressure (altimeter): 29.95 inches Hg (1014.3 mb)
[Sea-level pressure: 1014.3 mb]
Winds: from the SSE (160 degrees) at 13 MPH (11 knots; 5.7 m/s)
gusting to 20 MPH (17 knots; 8.8 m/s)
Visibility: 10 or more miles (16+ km)
Ceiling: 9000 feet AGL
Clouds: broken clouds at 9000 feet AGL
broken clouds at 12000 feet AGL
broken clouds at 20000 feet AGL
Present Weather: no significant weather observed at this time
KALB 201951Z 16011G17KT 10SM BKN090 BKN120 BKN200 12/01 A2995 RMK AO2 SLP143 T01170011